KINT

Smith Reynolds Airport

Winston Salem, North Carolina, USA
METAR KINT 231605Z 06006KT 2 1/2SM BR OVC004 11/09 A3049 RMK AO2 T01060094
Observed Flight Rules
Feb-23 @ 16:05 UTC (29 minutes ago) Instrument Flight Rules
Wind Visibility Clouds Conditions
60° at 6 knots 2 1/2 miles
  • Overcast at 400' AGL
  • Mist
Temperatures Readings
Current 11°C / 52°F
Dewpoint 9°C / 48°F
Humidity 88%
Altimeter 30.49" Hg
Pressure 1033 hPa
Elevation 291
METAR KINT 231605Z 06006KT 2 1/2SM BR OVC004 11/09 A3049 RMK AO2 T01060094
Observed Flight Rules
Feb-23 @ 16:05 UTC
(29 minutes ago)
LIFR
Wind Visibility
60° at 6 knots 2 1/2 miles
Clouds
  • Overcast at 400' AGL
Conditions
  • Mist
Temperature Dewpoint
11°C / 52°F 9°C / 48°F
Humidity Altimeter Pressure
88% 30.49" Hg 1033 hPa